createdAt,value
2022-07-28T00:01:23.387Z,1.20
2022-07-28T00:03:49.794Z,1.17
2022-07-28T00:06:16.513Z,1.30
2022-07-28T00:08:42.950Z,1.88
2022-07-28T00:11:09.467Z,1.05
2022-07-28T00:13:36.013Z,1.27
2022-07-28T00:16:02.544Z,1.27
2022-07-28T00:18:29.053Z,1.20
2022-07-28T00:20:55.488Z,1.10
2022-07-28T00:23:21.909Z,1.10
2022-07-28T00:25:48.389Z,1.30
2022-07-28T00:28:14.818Z,1.27
2022-07-28T00:30:42.916Z,1.27
2022-07-28T00:33:09.433Z,1.27
2022-07-28T00:35:35.863Z,1.48
2022-07-28T00:38:02.320Z,1.45
2022-07-28T00:40:47.652Z,1.30
2022-07-28T00:43:14.739Z,2.17
2022-07-28T00:45:41.369Z,1.77
2022-07-28T00:48:07.829Z,1.42
2022-07-28T00:50:34.254Z,1.77
2022-07-28T00:53:01.122Z,1.10
2022-07-28T00:55:27.587Z,1.60
2022-07-28T00:57:54.138Z,1.60
2022-07-28T01:00:20.753Z,1.42
2022-07-28T01:02:47.318Z,1.20
2022-07-28T01:05:14.955Z,1.65
2022-07-28T01:07:56.405Z,1.70
2022-07-28T01:10:56.029Z,1.77
2022-07-28T01:13:39.761Z,1.50
2022-07-28T01:16:07.649Z,1.70
2022-07-28T01:18:38.913Z,1.70
2022-07-28T01:21:14.112Z,1.80
2022-07-28T01:24:04.769Z,1.88
2022-07-28T01:26:34.874Z,1.50
2022-07-28T01:29:26.970Z,1.55
2022-07-28T01:32:01.064Z,1.55
2022-07-28T01:34:39.360Z,1.58
2022-07-28T01:37:11.757Z,1.67
2022-07-28T01:39:41.155Z,1.63
2022-07-28T01:42:09.523Z,1.90
2022-07-28T01:44:39.085Z,2.00
2022-07-28T01:47:07.560Z,1.88
2022-07-28T01:49:35.655Z,2.00
2022-07-28T01:52:03.555Z,1.75
2022-07-28T01:54:31.074Z,1.60
2022-07-28T01:56:59.269Z,1.95
2022-07-28T01:59:26.419Z,1.90
2022-07-28T02:01:53.481Z,1.38
2022-07-28T02:04:21.515Z,1.90
2022-07-28T02:06:48.652Z,1.55
2022-07-28T02:09:15.987Z,1.50
2022-07-28T02:11:44.362Z,2.55
2022-07-28T02:14:14.068Z,2.05
2022-07-28T02:16:54.822Z,1.80
2022-07-28T02:19:21.472Z,2.00
2022-07-28T02:21:49.426Z,1.73
2022-07-28T02:24:19.533Z,2.08
2022-07-28T02:27:06.522Z,2.03
2022-07-28T02:29:50.631Z,2.30
2022-07-28T02:32:27.989Z,1.75
2022-07-28T02:35:05.714Z,1.80
2022-07-28T02:37:39.227Z,1.85
2022-07-28T02:40:09.925Z,1.63
2022-07-28T02:42:36.759Z,1.85
2022-07-28T02:45:05.272Z,2.10
2022-07-28T02:47:37.686Z,1.80
2022-07-28T02:50:04.840Z,2.30
2022-07-28T02:52:32.950Z,1.90
2022-07-28T02:55:00.758Z,2.00
2022-07-28T02:57:27.635Z,1.50
2022-07-28T02:59:54.592Z,2.15
2022-07-28T03:02:21.642Z,1.95
2022-07-28T03:05:02.075Z,1.90
2022-07-28T03:07:30.186Z,1.98
2022-07-28T03:09:57.192Z,1.90
2022-07-28T03:12:23.701Z,2.58
2022-07-28T03:14:50.174Z,1.85
2022-07-28T03:17:16.862Z,2.00
2022-07-28T03:19:43.514Z,2.03
2022-07-28T03:22:11.645Z,2.13
2022-07-28T03:24:40.414Z,2.20
2022-07-28T03:27:28.296Z,1.98
2022-07-28T03:30:04.524Z,2.50
2022-07-28T03:32:33.273Z,2.45
2022-07-28T03:35:00.580Z,2.28
2022-07-28T03:37:38.318Z,2.10
2022-07-28T03:40:05.378Z,2.35
2022-07-28T03:42:33.240Z,1.90
2022-07-28T03:45:00.423Z,2.35
2022-07-28T03:47:26.896Z,2.30
2022-07-28T03:49:53.325Z,2.40
2022-07-28T03:52:19.789Z,2.20
2022-07-28T03:54:46.200Z,2.50
2022-07-28T03:57:13.716Z,2.17
2022-07-28T03:59:40.292Z,2.22
2022-07-28T04:02:06.868Z,2.00
2022-07-28T04:04:33.382Z,2.40
2022-07-28T04:06:59.824Z,2.78
2022-07-28T04:09:26.239Z,2.60
2022-07-28T04:11:52.798Z,2.17
2022-07-28T04:14:19.637Z,2.17
2022-07-28T04:16:46.351Z,2.47
2022-07-28T04:19:12.840Z,2.42
2022-07-28T04:21:39.309Z,2.25
2022-07-28T04:24:06.918Z,2.28
2022-07-28T04:26:33.616Z,2.40
2022-07-28T04:29:00.049Z,2.50
2022-07-28T04:31:29.969Z,2.60
2022-07-28T04:33:56.459Z,2.45
2022-07-28T04:36:22.867Z,2.13
2022-07-28T04:38:49.257Z,2.60
2022-07-28T04:41:15.676Z,2.53
2022-07-28T04:43:42.562Z,2.67
2022-07-28T04:46:13.212Z,2.40
2022-07-28T04:48:41.412Z,2.58
2022-07-28T04:51:07.903Z,3.00
2022-07-28T04:53:34.357Z,2.65
2022-07-28T04:56:00.810Z,2.65
2022-07-28T04:58:30.967Z,2.60
2022-07-28T05:00:57.607Z,2.25
2022-07-28T05:03:24.163Z,2.90
2022-07-28T05:05:54.433Z,2.83
2022-07-28T05:08:22.075Z,2.33
2022-07-28T05:10:52.282Z,1.95
2022-07-28T05:13:18.696Z,2.38
2022-07-28T05:15:45.089Z,2.50
2022-07-28T05:18:11.528Z,2.40
2022-07-28T05:20:37.921Z,1.80
2022-07-28T05:23:04.490Z,1.95
2022-07-28T05:25:30.943Z,2.10
2022-07-28T05:27:57.493Z,2.22
2022-07-28T05:30:23.977Z,2.20
2022-07-28T05:32:51.018Z,2.45
2022-07-28T05:35:17.491Z,2.38
2022-07-28T05:37:44.032Z,2.33
2022-07-28T05:40:13.717Z,2.30
2022-07-28T05:42:41.905Z,2.50
2022-07-28T05:45:16.453Z,1.92
2022-07-28T05:47:47.556Z,2.65
2022-07-28T05:50:15.994Z,2.35
2022-07-28T05:52:42.451Z,2.28
2022-07-28T05:55:10.001Z,2.65
2022-07-28T05:57:37.241Z,2.00
2022-07-28T06:00:06.955Z,2.63
2022-07-28T06:02:33.606Z,2.40
2022-07-28T06:05:00.104Z,4.18
2022-07-28T06:07:43.767Z,2.47
2022-07-28T06:10:11.625Z,2.08
2022-07-28T06:12:45.934Z,2.55
2022-07-28T06:15:18.065Z,2.40
2022-07-28T06:17:44.517Z,2.38
2022-07-28T06:20:11.878Z,2.10
2022-07-28T06:22:46.292Z,2.63
2022-07-28T06:25:15.161Z,2.05
2022-07-28T06:27:41.829Z,2.10
2022-07-28T06:30:09.040Z,1.92
2022-07-28T06:32:35.592Z,3.10
2022-07-28T06:35:02.016Z,3.63
2022-07-28T06:37:28.404Z,2.00
2022-07-28T06:39:54.810Z,2.90
2022-07-28T06:42:21.224Z,2.17
2022-07-28T06:44:58.250Z,2.13
2022-07-28T06:47:25.584Z,2.10
2022-07-28T06:49:52.011Z,2.00
2022-07-28T06:52:20.656Z,2.05
2022-07-28T06:54:48.821Z,1.90
2022-07-28T06:57:15.483Z,2.17
2022-07-28T06:59:43.433Z,1.92
2022-07-28T07:02:09.861Z,2.05
2022-07-28T07:04:36.786Z,1.75
2022-07-28T07:07:03.780Z,1.75
2022-07-28T07:09:41.312Z,2.35
2022-07-28T07:12:07.763Z,1.88
2022-07-28T07:14:34.233Z,1.83
2022-07-28T07:17:00.637Z,1.27
2022-07-28T07:19:27.087Z,1.42
2022-07-28T07:21:53.569Z,1.30
2022-07-28T07:24:19.993Z,1.30
2022-07-28T07:26:48.848Z,1.30
2022-07-28T07:29:15.281Z,1.50
2022-07-28T07:31:41.855Z,1.40
2022-07-28T07:34:08.409Z,2.17
2022-07-28T07:36:34.820Z,2.03
2022-07-28T07:39:01.254Z,1.40
2022-07-28T07:41:27.654Z,1.23
2022-07-28T07:43:54.063Z,1.92
2022-07-28T07:46:20.523Z,1.38
2022-07-28T07:48:47.020Z,1.65
2022-07-28T07:51:15.736Z,1.40
2022-07-28T07:53:42.303Z,1.70
2022-07-28T07:56:08.729Z,1.60
2022-07-28T07:58:35.138Z,1.50
2022-07-28T08:01:01.576Z,1.63
2022-07-28T08:03:27.969Z,1.73
2022-07-28T08:05:56.592Z,1.30
2022-07-28T08:08:24.099Z,1.88
2022-07-28T08:10:51.022Z,1.15
2022-07-28T08:13:20.329Z,1.67
2022-07-28T08:15:47.164Z,1.40
2022-07-28T08:18:13.699Z,1.40
2022-07-28T08:20:40.113Z,1.30
2022-07-28T08:23:08.344Z,1.08
2022-07-28T08:25:36.650Z,1.00
2022-07-28T08:28:03.416Z,1.80
2022-07-28T08:30:32.762Z,1.63
2022-07-28T08:33:00.036Z,1.50
2022-07-28T08:35:35.332Z,1.20
2022-07-28T08:38:03.950Z,1.00
2022-07-28T08:40:32.278Z,1.58
2022-07-28T08:43:25.208Z,1.05
2022-07-28T08:45:58.075Z,1.35
2022-07-28T08:48:24.953Z,1.67
2022-07-28T08:50:52.370Z,1.30
2022-07-28T08:53:20.546Z,1.40
2022-07-28T08:55:49.041Z,1.48
2022-07-28T08:58:16.664Z,1.67
2022-07-28T09:00:43.122Z,1.02
2022-07-28T09:03:11.465Z,1.52
2022-07-28T09:05:41.093Z,1.52
2022-07-28T09:08:07.582Z,1.25
2022-07-28T09:10:34.024Z,1.10
2022-07-28T09:13:00.419Z,1.30
2022-07-28T09:15:27.050Z,1.67
2022-07-28T09:17:53.521Z,0.95
2022-07-28T09:20:20.163Z,1.10
2022-07-28T09:23:02.770Z,1.02
2022-07-28T09:25:30.275Z,1.42
2022-07-28T09:28:05.497Z,1.63
2022-07-28T09:30:33.964Z,1.90
2022-07-28T09:33:42.372Z,1.30
2022-07-28T09:36:04.042Z,0.90
2022-07-28T09:38:40.041Z,1.02
2022-07-28T09:41:07.361Z,1.38
2022-07-28T09:43:44.485Z,1.13
2022-07-28T09:46:22.110Z,1.90
2022-07-28T09:48:48.847Z,1.60
2022-07-28T09:51:36.613Z,1.25
2022-07-28T09:54:14.321Z,1.30
2022-07-28T09:56:46.023Z,1.35
2022-07-28T09:59:14.883Z,1.40
2022-07-28T10:01:59.732Z,1.27
2022-07-28T10:04:41.851Z,0.90
2022-07-28T10:07:10.385Z,1.55
2022-07-28T10:09:40.653Z,1.10
2022-07-28T10:12:20.322Z,1.35
2022-07-28T10:14:48.108Z,1.15
2022-07-28T10:17:26.891Z,1.00
2022-07-28T10:19:55.013Z,1.50
2022-07-28T10:22:23.469Z,1.13
2022-07-28T10:24:52.738Z,1.00
2022-07-28T10:27:24.821Z,1.02
2022-07-28T10:29:56.877Z,1.42
2022-07-28T10:34:56.203Z,1.30
2022-07-28T10:37:27.738Z,1.90
2022-07-28T10:40:09.977Z,1.05
2022-07-28T10:42:37.166Z,1.10
2022-07-28T10:45:04.688Z,1.48
2022-07-28T10:47:35.865Z,1.27
2022-07-28T10:52:46.636Z,1.20
2022-07-28T10:55:31.646Z,1.10
2022-07-28T10:58:24.770Z,1.00
2022-07-28T11:00:56.781Z,1.10
2022-07-28T11:03:43.081Z,1.10
2022-07-28T11:06:36.632Z,1.83
2022-07-28T11:09:15.340Z,1.70
2022-07-28T11:11:53.193Z,1.20
2022-07-28T11:14:22.749Z,0.82
2022-07-28T11:17:11.463Z,0.80
2022-07-28T11:19:46.736Z,0.85
2022-07-28T11:22:28.299Z,1.10
2022-07-28T11:24:57.986Z,0.75
2022-07-28T11:27:40.087Z,1.10
2022-07-28T11:30:06.925Z,1.83
2022-07-28T11:33:03.345Z,1.00
2022-07-28T11:35:31.353Z,0.90
2022-07-28T11:38:00.687Z,1.88
2022-07-28T11:40:30.834Z,1.48
2022-07-28T11:43:36.630Z,1.05
2022-07-28T11:46:04.868Z,1.00
2022-07-28T11:48:38.340Z,1.10
2022-07-28T11:51:04.809Z,0.90
2022-07-28T11:53:53.254Z,2.03
2022-07-28T11:56:23.984Z,1.15
2022-07-28T11:59:05.085Z,1.05
2022-07-28T12:01:33.135Z,0.90
2022-07-28T12:04:17.401Z,1.20
2022-07-28T12:06:44.434Z,1.00
2022-07-28T12:09:23.309Z,1.10
2022-07-28T12:11:54.106Z,0.90
2022-07-28T12:14:22.497Z,0.82
2022-07-28T12:16:52.566Z,0.80
2022-07-28T12:19:20.711Z,0.98
2022-07-28T12:21:56.573Z,0.88
2022-07-28T12:24:31.388Z,0.90
2022-07-28T12:27:00.232Z,1.13
2022-07-28T12:29:36.066Z,1.13
2022-07-28T12:32:09.600Z,0.90
2022-07-28T12:34:37.901Z,1.10
2022-07-28T12:37:06.036Z,1.55
2022-07-28T12:39:34.344Z,1.02
2022-07-28T12:42:11.585Z,0.95
2022-07-28T12:44:43.503Z,1.00
2022-07-28T12:47:12.040Z,0.82
2022-07-28T12:49:40.841Z,0.98
2022-07-28T12:52:22.066Z,1.10
2022-07-28T12:57:50.617Z,1.02
2022-07-28T13:00:29.359Z,1.10
2022-07-28T13:02:57.816Z,1.23
2022-07-28T13:05:58.046Z,1.20
2022-07-28T13:08:27.433Z,1.13
2022-07-28T13:10:57.481Z,0.90
2022-07-28T13:13:25.508Z,1.27
2022-07-28T13:16:15.504Z,1.00
2022-07-28T13:18:43.141Z,0.95
2022-07-28T13:21:10.854Z,1.15
2022-07-28T13:23:37.666Z,1.77
2022-07-28T13:26:05.634Z,1.08
2022-07-28T13:28:32.217Z,0.95
2022-07-28T13:30:58.664Z,0.98
2022-07-28T13:33:26.755Z,1.10
2022-07-28T13:35:54.729Z,0.80
2022-07-28T13:38:21.222Z,0.93
2022-07-28T13:40:47.694Z,1.25
2022-07-28T13:43:14.154Z,1.00
2022-07-28T13:45:40.681Z,0.88
2022-07-28T13:48:08.341Z,1.00
2022-07-28T13:50:34.845Z,0.93
2022-07-28T13:53:01.491Z,1.20
2022-07-28T13:55:28.146Z,1.00
2022-07-28T13:57:54.950Z,0.90
2022-07-28T14:00:23.196Z,1.35
2022-07-28T14:02:50.816Z,1.17
2022-07-28T14:05:17.410Z,1.35
2022-07-28T14:07:48.134Z,0.77
2022-07-28T14:10:15.545Z,1.05
2022-07-28T14:12:41.994Z,0.80
2022-07-28T14:15:11.591Z,1.08
2022-07-28T14:17:43.697Z,1.13
2022-07-28T14:20:12.839Z,1.30
2022-07-28T14:22:39.240Z,1.02
2022-07-28T14:25:06.073Z,0.95
2022-07-28T14:27:32.622Z,1.10
2022-07-28T14:29:59.065Z,0.90
2022-07-28T14:32:30.169Z,0.90
2022-07-28T14:34:56.574Z,1.08
2022-07-28T14:37:23.149Z,1.17
2022-07-28T14:39:49.548Z,1.08
2022-07-28T14:42:16.079Z,1.35
2022-07-28T14:44:42.489Z,1.23
2022-07-28T14:47:09.038Z,1.17
2022-07-28T14:49:35.743Z,1.00
2022-07-28T14:52:02.773Z,1.15
2022-07-28T14:54:29.532Z,1.10
2022-07-28T14:56:56.271Z,1.45
2022-07-28T14:59:22.776Z,1.25
2022-07-28T15:01:49.963Z,1.10
2022-07-28T15:04:17.920Z,1.20
2022-07-28T15:06:44.936Z,1.13
2022-07-28T15:09:11.463Z,1.20
2022-07-28T15:11:39.594Z,0.95
2022-07-28T15:14:06.011Z,0.95
2022-07-28T15:16:33.003Z,1.20
2022-07-28T15:18:59.444Z,1.10
2022-07-28T15:21:25.854Z,1.08
2022-07-28T15:23:52.310Z,1.10
2022-07-28T15:26:18.746Z,1.60
2022-07-28T15:28:48.252Z,1.20
2022-07-28T15:31:15.490Z,1.58
2022-07-28T15:33:48.188Z,1.00
2022-07-28T15:36:20.423Z,1.40
2022-07-28T15:38:48.970Z,1.23
2022-07-28T15:41:18.268Z,1.10
2022-07-28T15:43:44.948Z,1.00
2022-07-28T15:46:12.934Z,1.08
2022-07-28T15:48:41.311Z,1.23
2022-07-28T15:51:08.436Z,1.65
2022-07-28T15:53:35.762Z,1.00
2022-07-28T15:56:04.009Z,1.30
2022-07-28T15:58:30.466Z,1.20
2022-07-28T16:00:56.881Z,1.27
2022-07-28T16:03:27.996Z,1.10
2022-07-28T16:05:54.492Z,1.20
2022-07-28T16:08:22.512Z,1.20
2022-07-28T16:10:49.908Z,0.75
2022-07-28T16:13:22.708Z,1.10
2022-07-28T16:16:02.837Z,1.30
2022-07-28T16:18:29.253Z,1.08
2022-07-28T16:20:55.691Z,1.08
2022-07-28T16:23:22.167Z,1.10
2022-07-28T16:25:48.572Z,0.98
2022-07-28T16:28:14.962Z,1.50
2022-07-28T16:30:41.441Z,1.27
2022-07-28T16:33:08.177Z,1.20
2022-07-28T16:35:34.604Z,1.00
2022-07-28T16:38:05.056Z,1.13
2022-07-28T16:40:32.454Z,1.20
2022-07-28T16:43:04.227Z,1.38
2022-07-28T16:47:58.741Z,1.17
2022-07-28T16:50:25.389Z,1.13
2022-07-28T16:52:52.389Z,1.05
2022-07-28T16:55:23.396Z,1.10
2022-07-28T16:57:51.222Z,1.00
2022-07-28T17:00:18.377Z,1.17
2022-07-28T17:02:45.270Z,1.02
2022-07-28T17:05:12.500Z,1.10
2022-07-28T17:07:45.247Z,1.27
2022-07-28T17:10:13.659Z,1.20
2022-07-28T17:12:40.132Z,1.20
2022-07-28T17:15:07.044Z,1.13
2022-07-28T17:17:47.040Z,1.15
2022-07-28T17:20:13.597Z,1.27
2022-07-28T17:22:40.220Z,1.20
2022-07-28T17:25:22.668Z,1.33
2022-07-28T17:27:53.662Z,1.20
2022-07-28T17:30:21.232Z,1.70
2022-07-28T17:32:47.697Z,0.90
2022-07-28T17:35:31.512Z,1.10
2022-07-28T17:38:00.774Z,1.23
2022-07-28T17:40:27.219Z,1.50
2022-07-28T17:42:54.082Z,1.40
2022-07-28T17:45:20.536Z,1.33
2022-07-28T17:47:47.007Z,2.40
2022-07-28T17:50:13.546Z,1.17
2022-07-28T17:52:40.943Z,1.35
2022-07-28T17:55:26.447Z,1.15
2022-07-28T17:57:55.983Z,1.10
2022-07-28T18:00:22.660Z,1.15
2022-07-28T18:02:49.905Z,1.55
2022-07-28T18:05:17.484Z,1.73
2022-07-28T18:07:50.428Z,1.30
2022-07-28T18:10:20.288Z,1.13
2022-07-28T18:12:51.473Z,1.50
2022-07-28T18:15:18.821Z,1.10
2022-07-28T18:17:54.817Z,1.45
2022-07-28T18:20:22.144Z,2.08
2022-07-28T18:22:48.547Z,1.00
2022-07-28T18:25:14.940Z,1.40
2022-07-28T18:27:42.506Z,1.40
2022-07-28T18:30:09.793Z,1.08
2022-07-28T18:32:36.254Z,1.58
2022-07-28T18:35:02.661Z,1.50
2022-07-28T18:37:30.977Z,1.40
2022-07-28T18:39:57.530Z,1.00
2022-07-28T18:42:23.982Z,1.60
2022-07-28T18:44:50.423Z,1.42
2022-07-28T18:47:16.826Z,1.40
2022-07-28T18:49:43.421Z,1.52
2022-07-28T18:52:09.896Z,1.67
2022-07-28T18:54:36.324Z,1.30
2022-07-28T18:57:02.732Z,1.20
2022-07-28T18:59:29.125Z,1.40
2022-07-28T19:01:55.688Z,1.38
2022-07-28T19:04:22.159Z,1.30
2022-07-28T19:06:49.179Z,1.33
2022-07-28T19:09:15.580Z,1.45
2022-07-28T19:11:46.007Z,1.42
2022-07-28T19:14:16.635Z,1.00
2022-07-28T19:16:43.739Z,1.17
2022-07-28T19:19:10.171Z,0.93
2022-07-28T19:21:36.599Z,1.50
2022-07-28T19:24:03.675Z,1.67
2022-07-28T19:26:30.091Z,2.05
2022-07-28T19:28:56.505Z,1.30
2022-07-28T19:31:23.052Z,1.17
2022-07-28T19:33:49.566Z,1.42
2022-07-28T19:36:15.999Z,1.17
2022-07-28T19:38:42.712Z,1.10
2022-07-28T19:41:09.319Z,1.70
2022-07-28T19:43:35.912Z,1.10
2022-07-28T19:46:02.820Z,1.10
2022-07-28T19:48:29.325Z,1.23
2022-07-28T19:50:56.715Z,1.50
2022-07-28T19:53:25.337Z,1.30
2022-07-28T19:55:58.726Z,1.15
2022-07-28T19:58:25.170Z,1.90
2022-07-28T20:00:51.778Z,1.70
2022-07-28T20:04:01.576Z,1.30
2022-07-28T20:06:05.273Z,1.27
2022-07-28T20:08:31.706Z,1.15
2022-07-28T20:10:58.369Z,1.58
2022-07-28T20:13:24.804Z,1.23
2022-07-28T20:15:51.266Z,1.30
2022-07-28T20:18:19.255Z,1.13
2022-07-28T20:20:46.681Z,1.08
2022-07-28T20:23:14.702Z,1.13
2022-07-28T20:25:41.848Z,1.05
2022-07-28T20:28:08.825Z,1.33
2022-07-28T20:30:35.307Z,1.35
2022-07-28T20:33:02.512Z,1.52
2022-07-28T20:35:29.048Z,1.83
2022-07-28T20:37:55.786Z,1.10
2022-07-28T20:40:22.226Z,2.60
2022-07-28T20:42:52.803Z,1.40
2022-07-28T20:45:19.763Z,1.30
2022-07-28T20:47:46.189Z,1.10
2022-07-28T20:50:14.509Z,1.33
2022-07-28T20:52:41.071Z,1.10
2022-07-28T20:55:08.786Z,1.30
2022-07-28T20:57:35.260Z,1.27
2022-07-28T21:00:03.139Z,1.20
2022-07-28T21:02:29.637Z,1.40
2022-07-28T21:04:56.120Z,1.13
2022-07-28T21:07:59.849Z,1.23
2022-07-28T21:10:10.059Z,1.58
2022-07-28T21:12:37.225Z,1.25
2022-07-28T21:15:05.073Z,1.15
2022-07-28T21:17:31.484Z,1.20
2022-07-28T21:19:57.891Z,1.63
2022-07-28T21:22:24.585Z,1.10
2022-07-28T21:24:55.321Z,1.38
2022-07-28T21:27:22.699Z,1.40
2022-07-28T21:29:49.552Z,1.35
2022-07-28T21:32:16.030Z,1.42
2022-07-28T21:34:42.460Z,1.30
2022-07-28T21:37:11.399Z,1.27
2022-07-28T21:39:38.974Z,1.40
2022-07-28T21:42:08.536Z,0.95
2022-07-28T21:44:35.768Z,1.10
2022-07-28T21:47:02.188Z,1.10
2022-07-28T21:49:30.459Z,1.23
2022-07-28T21:51:56.898Z,1.63
2022-07-28T21:54:23.593Z,1.30
2022-07-28T21:56:50.107Z,1.40
2022-07-28T21:59:16.531Z,1.52
2022-07-28T22:01:43.070Z,1.17
2022-07-28T22:04:09.545Z,1.60
2022-07-28T22:06:35.987Z,1.83
2022-07-28T22:09:02.499Z,1.10
2022-07-28T22:11:29.181Z,1.52
2022-07-28T22:13:55.720Z,1.00
2022-07-28T22:16:22.193Z,1.42
2022-07-28T22:18:48.647Z,1.20
2022-07-28T22:21:15.060Z,1.13
2022-07-28T22:23:41.820Z,1.08
2022-07-28T22:26:08.227Z,1.50
2022-07-28T22:28:34.641Z,1.55
2022-07-28T22:31:09.332Z,1.40
2022-07-28T22:33:39.757Z,1.42
2022-07-28T22:36:07.715Z,1.10
2022-07-28T22:38:34.131Z,1.40
2022-07-28T22:41:00.555Z,1.30
2022-07-28T22:43:26.961Z,1.80
2022-07-28T22:45:53.487Z,1.38
2022-07-28T22:48:19.949Z,1.10
2022-07-28T22:50:46.353Z,1.30
2022-07-28T22:53:12.762Z,1.35
2022-07-28T22:55:39.892Z,1.30
2022-07-28T22:58:06.542Z,1.15
2022-07-28T23:00:36.176Z,1.17
2022-07-28T23:03:03.526Z,1.50
2022-07-28T23:05:30.445Z,1.40
2022-07-28T23:07:57.334Z,1.40
2022-07-28T23:10:24.157Z,1.50
2022-07-28T23:12:50.561Z,1.50
2022-07-28T23:15:17.140Z,1.20
2022-07-28T23:17:43.616Z,1.27
2022-07-28T23:20:10.551Z,1.55
2022-07-28T23:22:37.885Z,1.02
2022-07-28T23:25:04.785Z,1.45
2022-07-28T23:27:31.197Z,1.30
2022-07-28T23:29:57.610Z,1.35
2022-07-28T23:32:24.019Z,1.63
2022-07-28T23:34:50.439Z,1.20
2022-07-28T23:37:16.884Z,1.30
2022-07-28T23:39:43.382Z,1.23
2022-07-28T23:42:09.823Z,1.33
2022-07-28T23:44:37.815Z,1.27
2022-07-28T23:47:04.399Z,1.42
2022-07-28T23:49:30.881Z,1.63
2022-07-28T23:51:57.280Z,1.30
2022-07-28T23:54:23.705Z,1.42
2022-07-28T23:56:56.460Z,1.40
2022-07-28T23:59:23.823Z,1.50
